createdAt,value
2019-04-04T00:02:20.814Z,9.46
2019-04-04T00:05:26.714Z,9.78
2019-04-04T00:08:32.683Z,9.78
2019-04-04T00:11:38.671Z,9.88
2019-04-04T00:14:44.532Z,9.53
2019-04-04T00:17:51.848Z,9.78
2019-04-04T00:20:57.942Z,10.09
2019-04-04T00:24:03.847Z,9.85
2019-04-04T00:27:12.988Z,9.75
2019-04-04T00:30:18.024Z,9.53
2019-04-04T00:33:25.740Z,10.03
2019-04-04T00:36:34.130Z,9.91
2019-04-04T00:39:39.885Z,9.57
2019-04-04T00:42:47.854Z,9.27
2019-04-04T00:45:53.585Z,9.36
2019-04-04T00:48:59.294Z,9.19
2019-04-04T00:52:05.025Z,9.43
2019-04-04T00:55:10.906Z,9.41
2019-04-04T00:58:16.618Z,9.48
2019-04-04T01:01:22.239Z,9.08
2019-04-04T01:04:30.968Z,9.44
2019-04-04T01:07:35.798Z,9.50
2019-04-04T01:10:43.165Z,9.37
2019-04-04T01:13:48.922Z,9.91
2019-04-04T01:16:54.600Z,9.66
2019-04-04T01:20:00.420Z,9.76
2019-04-04T01:23:06.130Z,9.80
2019-04-04T01:26:11.952Z,9.10
2019-04-04T01:29:17.764Z,9.51
2019-04-04T01:32:23.466Z,9.64
2019-04-04T01:35:29.214Z,9.68
2019-04-04T01:38:34.888Z,9.83
2019-04-04T01:41:40.585Z,9.79
2019-04-04T01:44:46.243Z,10.04
2019-04-04T01:47:52.004Z,9.62
2019-04-04T01:50:57.687Z,9.40
2019-04-04T01:54:03.395Z,9.43
2019-04-04T01:57:09.173Z,9.19
2019-04-04T02:00:15.833Z,9.42
2019-04-04T02:03:22.657Z,9.29
2019-04-04T02:06:30.138Z,9.43
2019-04-04T02:09:35.813Z,9.48
2019-04-04T02:12:41.511Z,9.71
2019-04-04T02:15:47.202Z,8.93
2019-04-04T02:18:53.751Z,8.98
2019-04-04T02:22:00.375Z,9.22
2019-04-04T02:25:06.529Z,9.59
2019-04-04T02:28:12.262Z,9.45
2019-04-04T02:31:20.616Z,9.26
2019-04-04T02:34:25.618Z,9.53
2019-04-04T02:37:31.355Z,8.90
2019-04-04T02:40:40.778Z,8.89
2019-04-04T02:43:44.425Z,9.00
2019-04-04T02:46:50.068Z,9.22
2019-04-04T02:49:55.818Z,8.96
2019-04-04T02:53:01.741Z,8.67
2019-04-04T02:56:07.401Z,8.78
2019-04-04T02:59:13.098Z,9.42
2019-04-04T03:02:18.861Z,9.28
2019-04-04T03:05:24.528Z,9.10
2019-04-04T03:08:30.388Z,9.34
2019-04-04T03:11:36.158Z,9.52
2019-04-04T03:14:41.834Z,9.64
2019-04-04T03:17:47.471Z,9.24
2019-04-04T03:20:53.142Z,9.16
2019-04-04T03:23:58.864Z,8.43
2019-04-04T03:27:04.598Z,9.17
2019-04-04T03:30:14.577Z,9.25
2019-04-04T03:33:17.932Z,9.63
2019-04-04T03:36:23.593Z,9.85
2019-04-04T03:39:29.342Z,9.75
2019-04-04T03:42:34.988Z,9.59
2019-04-04T03:45:40.722Z,9.82
2019-04-04T03:48:49.813Z,9.73
2019-04-04T03:51:53.817Z,8.51
2019-04-04T03:54:59.522Z,8.21
2019-04-04T03:58:05.324Z,8.26
2019-04-04T04:01:13.087Z,7.79
2019-04-04T04:04:18.400Z,8.19
2019-04-04T04:07:24.168Z,8.04
2019-04-04T04:10:33.270Z,8.02
2019-04-04T04:13:37.196Z,7.88
2019-04-04T04:16:42.881Z,8.08
2019-04-04T04:19:48.581Z,8.66
2019-04-04T04:22:54.251Z,8.95
2019-04-04T04:26:00.016Z,9.21
2019-04-04T04:29:05.781Z,9.65
2019-04-04T04:32:11.499Z,9.71
2019-04-04T04:35:17.194Z,9.96
2019-04-04T04:38:25.606Z,10.13
2019-04-04T04:41:30.225Z,10.17
2019-04-04T04:44:38.777Z,10.15
2019-04-04T04:47:43.349Z,10.47
2019-04-04T04:50:49.036Z,10.27
2019-04-04T04:53:54.701Z,10.48
2019-04-04T04:57:03.473Z,10.58
2019-04-04T05:00:07.931Z,10.55
2019-04-04T05:03:13.657Z,10.62
2019-04-04T05:06:19.422Z,10.64
2019-04-04T05:09:25.119Z,10.70
2019-04-04T05:12:30.877Z,10.81
2019-04-04T05:15:36.663Z,10.56
2019-04-04T05:18:42.374Z,10.93
2019-04-04T05:21:48.089Z,10.56
2019-04-04T05:25:07.504Z,10.96
2019-04-04T05:28:01.243Z,10.97
2019-04-04T05:31:06.938Z,11.41
2019-04-04T05:34:12.616Z,11.25
2019-04-04T05:37:18.371Z,11.55
2019-04-04T05:40:24.325Z,11.81
2019-04-04T05:43:29.931Z,12.04
2019-04-04T05:46:35.683Z,11.93
2019-04-04T05:49:41.381Z,11.86
2019-04-04T05:52:47.067Z,12.42
2019-04-04T05:55:54.556Z,12.37
2019-04-04T05:59:00.609Z,12.68
2019-04-04T06:02:06.509Z,12.31
2019-04-04T06:05:12.178Z,12.13
2019-04-04T06:08:17.907Z,12.31
2019-04-04T06:11:23.650Z,12.00
2019-04-04T06:14:29.986Z,11.85
2019-04-04T06:17:38.792Z,12.09
2019-04-04T06:20:44.053Z,12.79
2019-04-04T06:23:49.799Z,12.70
2019-04-04T06:26:55.567Z,13.03
2019-04-04T06:30:01.233Z,13.08
2019-04-04T06:33:07.709Z,13.02
2019-04-04T06:36:13.420Z,12.46
2019-04-04T06:39:19.167Z,12.16
2019-04-04T06:42:25.246Z,11.99
2019-04-04T06:45:31.155Z,12.69
2019-04-04T06:48:36.803Z,13.57
2019-04-04T06:51:46.193Z,13.65
2019-04-04T06:54:49.946Z,14.25
2019-04-04T06:57:55.635Z,14.34
2019-04-04T07:01:01.348Z,14.50
2019-04-04T07:04:07.095Z,14.54
2019-04-04T07:07:13.160Z,14.42
2019-04-04T07:10:21.274Z,14.38
2019-04-04T07:13:28.085Z,13.53
2019-04-04T07:16:36.230Z,14.13
2019-04-04T07:19:41.087Z,14.47
2019-04-04T07:22:46.804Z,14.44
2019-04-04T07:25:53.600Z,14.58
2019-04-04T07:29:00.125Z,14.12
2019-04-04T07:32:07.204Z,14.65
2019-04-04T07:35:16.769Z,14.98
2019-04-04T07:38:21.055Z,14.80
2019-04-04T07:41:26.752Z,14.44
2019-04-04T07:44:32.497Z,14.83
2019-04-04T07:47:38.170Z,14.40
2019-04-04T07:50:43.860Z,15.18
2019-04-04T07:53:49.590Z,15.41
2019-04-04T07:56:55.315Z,15.81
2019-04-04T08:00:00.995Z,15.83
2019-04-04T08:03:08.551Z,14.11
2019-04-04T08:06:14.286Z,15.01
2019-04-04T08:09:20.169Z,15.61
2019-04-04T08:12:26.365Z,15.66
2019-04-04T08:15:32.211Z,15.80
2019-04-04T08:18:38.997Z,15.18
2019-04-04T08:21:44.705Z,15.99
2019-04-04T08:24:50.441Z,15.71
2019-04-04T08:27:56.122Z,16.34
2019-04-04T08:31:01.812Z,16.14
2019-04-04T08:34:07.667Z,16.69
2019-04-04T08:37:13.380Z,16.53
2019-04-04T08:40:19.062Z,16.51
2019-04-04T08:43:24.915Z,16.52
2019-04-04T08:46:30.598Z,16.71
2019-04-04T08:49:36.471Z,16.78
2019-04-04T08:52:42.148Z,17.28
2019-04-04T08:55:47.908Z,17.46
2019-04-04T08:58:53.594Z,17.11
2019-04-04T09:01:59.321Z,17.23
2019-04-04T09:05:12.267Z,17.56
2019-04-04T09:08:14.685Z,18.00
2019-04-04T09:11:20.385Z,17.57
2019-04-04T09:14:27.190Z,17.67
2019-04-04T09:17:32.848Z,18.75
2019-04-04T09:20:38.686Z,17.92
2019-04-04T09:23:44.371Z,18.06
2019-04-04T09:26:50.573Z,17.44
2019-04-04T09:29:56.462Z,17.88
2019-04-04T09:33:02.228Z,17.58
2019-04-04T09:36:08.097Z,18.28
2019-04-04T09:39:13.950Z,18.56
2019-04-04T09:42:19.579Z,18.44
2019-04-04T09:45:25.287Z,19.15
2019-04-04T09:48:30.991Z,18.74
2019-04-04T09:51:36.767Z,18.23
2019-04-04T09:54:42.511Z,18.43
2019-04-04T09:57:48.167Z,18.72
2019-04-04T10:00:53.999Z,19.23
2019-04-04T10:03:59.702Z,19.14
2019-04-04T10:07:05.555Z,19.02
2019-04-04T10:10:14.901Z,19.61
2019-04-04T10:13:20.626Z,19.68
2019-04-04T10:16:26.354Z,19.76
2019-04-04T10:19:32.024Z,19.32
2019-04-04T10:22:37.849Z,19.29
2019-04-04T10:25:43.544Z,19.24
2019-04-04T10:28:49.355Z,18.00
2019-04-04T10:31:55.011Z,18.02
2019-04-04T10:35:00.759Z,17.66
2019-04-04T10:38:06.477Z,18.56
2019-04-04T10:41:12.151Z,18.81
2019-04-04T10:44:17.870Z,19.69
2019-04-04T10:47:23.626Z,19.90
2019-04-04T10:50:29.332Z,18.96
2019-04-04T10:53:35.007Z,19.49
2019-04-04T10:56:40.700Z,19.71
2019-04-04T10:59:46.373Z,19.40
2019-04-04T11:02:52.149Z,19.32
2019-04-04T11:05:57.856Z,18.97
2019-04-04T11:09:04.588Z,19.17
2019-04-04T11:12:10.906Z,19.17
2019-04-04T11:15:16.582Z,19.24
2019-04-04T11:18:22.337Z,19.15
2019-04-04T11:21:28.014Z,19.50
2019-04-04T11:24:33.721Z,19.50
2019-04-04T11:27:39.454Z,19.27
2019-04-04T11:30:45.404Z,19.44
2019-04-04T11:33:51.102Z,19.28
2019-04-04T11:36:56.824Z,19.60
2019-04-04T11:40:02.496Z,19.49
2019-04-04T11:43:08.266Z,19.82
2019-04-04T11:46:14.932Z,20.06
2019-04-04T11:49:20.689Z,19.57
2019-04-04T11:52:26.360Z,19.57
2019-04-04T11:55:32.107Z,19.75
2019-04-04T11:58:37.826Z,19.10
2019-04-04T12:01:44.444Z,19.56
2019-04-04T12:04:50.118Z,19.14
2019-04-04T12:07:55.884Z,19.59
2019-04-04T12:11:01.684Z,19.58
2019-04-04T12:14:07.352Z,19.36
2019-04-04T12:17:13.093Z,19.49
2019-04-04T12:20:18.986Z,19.70
2019-04-04T12:23:24.714Z,19.46
2019-04-04T12:26:30.394Z,19.16
2019-04-04T12:29:36.109Z,19.61
2019-04-04T12:32:41.773Z,19.65
2019-04-04T12:35:47.638Z,19.86
2019-04-04T12:38:53.317Z,19.71
2019-04-04T12:41:58.985Z,19.88
2019-04-04T12:45:05.514Z,19.88
2019-04-04T12:48:11.303Z,19.61
2019-04-04T12:51:17.046Z,19.82
2019-04-04T12:54:22.820Z,20.20
2019-04-04T12:57:28.596Z,20.29
2019-04-04T13:00:34.314Z,19.89
2019-04-04T13:03:39.985Z,19.70
2019-04-04T13:06:45.906Z,19.76
2019-04-04T13:09:51.569Z,19.58
2019-04-04T13:12:57.307Z,19.80
2019-04-04T13:16:03.035Z,19.76
2019-04-04T13:19:08.746Z,19.43
2019-04-04T13:22:14.437Z,19.97
2019-04-04T13:25:20.322Z,19.97
2019-04-04T13:28:27.211Z,19.86
2019-04-04T13:31:32.945Z,19.62
2019-04-04T13:34:38.620Z,19.55
2019-04-04T13:37:44.366Z,19.55
2019-04-04T13:40:50.205Z,19.45
2019-04-04T13:43:55.891Z,19.41
2019-04-04T13:47:03.177Z,18.65
2019-04-04T13:50:12.433Z,19.21
2019-04-04T13:53:20.602Z,19.30
2019-04-04T13:56:25.301Z,19.48
2019-04-04T13:59:30.978Z,18.72
2019-04-04T14:02:36.739Z,18.72
2019-04-04T14:05:42.435Z,18.45
2019-04-04T14:08:48.174Z,18.38
2019-04-04T14:11:53.931Z,18.08
2019-04-04T14:14:59.661Z,18.06
2019-04-04T14:18:22.152Z,18.49
2019-04-04T14:21:27.859Z,18.62
2019-04-04T14:24:33.540Z,18.87
2019-04-04T14:27:39.201Z,18.93
2019-04-04T14:30:44.932Z,19.03
2019-04-04T14:33:50.643Z,19.06
2019-04-04T14:36:56.349Z,19.31
2019-04-04T14:40:02.040Z,19.47
2019-04-04T14:43:07.893Z,19.43
2019-04-04T14:46:13.589Z,19.17
2019-04-04T14:49:19.261Z,19.61
2019-04-04T14:52:25.047Z,18.76
2019-04-04T14:55:30.726Z,18.65
2019-04-04T14:58:36.550Z,18.55
2019-04-04T15:01:42.273Z,18.60
2019-04-04T15:04:47.971Z,18.44
2019-04-04T15:07:53.737Z,18.47
2019-04-04T15:10:59.432Z,18.33
2019-04-04T15:14:05.368Z,18.32
2019-04-04T15:17:11.046Z,18.09
2019-04-04T15:20:16.982Z,18.04
2019-04-04T15:23:22.653Z,17.99
2019-04-04T15:26:28.401Z,17.96
2019-04-04T15:29:34.176Z,18.08
2019-04-04T15:32:39.870Z,18.07
2019-04-04T15:35:45.615Z,17.98
2019-04-04T15:38:51.402Z,17.77
2019-04-04T15:41:57.088Z,17.75
2019-04-04T15:45:02.816Z,17.61
2019-04-04T15:48:08.939Z,17.29
2019-04-04T15:51:14.672Z,17.27
2019-04-04T15:54:20.393Z,17.29
2019-04-04T15:57:26.079Z,17.26
2019-04-04T16:00:31.841Z,17.53
2019-04-04T16:03:37.554Z,17.29
2019-04-04T16:06:43.257Z,17.44
2019-04-04T16:09:48.996Z,17.23
2019-04-04T16:12:54.699Z,16.98
2019-04-04T16:16:01.608Z,17.03
2019-04-04T16:19:07.441Z,17.05
2019-04-04T16:22:13.206Z,16.92
2019-04-04T16:25:19.071Z,16.66
2019-04-04T16:28:24.786Z,16.55
2019-04-04T16:31:30.484Z,16.69
2019-04-04T16:34:36.274Z,16.58
2019-04-04T16:37:42.097Z,16.53
2019-04-04T16:40:47.829Z,16.63
2019-04-04T16:43:53.650Z,16.48
2019-04-04T16:46:59.310Z,16.62
2019-04-04T16:50:05.574Z,16.56
2019-04-04T16:53:11.231Z,16.35
2019-04-04T16:56:17.002Z,16.27
2019-04-04T16:59:23.818Z,16.27
2019-04-04T17:02:29.585Z,16.39
2019-04-04T17:05:35.380Z,16.17
2019-04-04T17:08:41.056Z,16.18
2019-04-04T17:11:46.743Z,16.12
2019-04-04T17:14:52.429Z,16.09
2019-04-04T17:17:58.175Z,16.02
2019-04-04T17:21:03.864Z,16.09
2019-04-04T17:27:40.835Z,15.78
2019-04-04T17:30:46.692Z,15.78
2019-04-04T17:33:52.686Z,15.64
2019-04-04T17:36:58.844Z,15.62
2019-04-04T17:40:05.296Z,15.54
2019-04-04T17:43:10.958Z,15.41
2019-04-04T17:46:17.100Z,15.55
2019-04-04T17:49:22.937Z,15.70
2019-04-04T17:52:28.790Z,15.69
2019-04-04T17:55:34.722Z,15.61
2019-04-04T17:58:40.556Z,15.56
2019-04-04T18:01:46.299Z,15.50
2019-04-04T18:04:51.979Z,15.39
2019-04-04T18:07:57.681Z,15.37
2019-04-04T18:11:03.528Z,15.30
2019-04-04T18:14:09.361Z,15.20
2019-04-04T18:17:15.080Z,15.27
2019-04-04T18:20:21.228Z,15.24
2019-04-04T18:23:26.904Z,14.97
2019-04-04T18:26:32.617Z,15.02
2019-04-04T18:29:38.374Z,14.93
2019-04-04T18:32:44.078Z,14.60
2019-04-04T18:35:49.882Z,14.68
2019-04-04T18:38:55.519Z,14.61
2019-04-04T18:42:01.190Z,14.71
2019-04-04T18:45:07.106Z,14.65
2019-04-04T18:48:13.927Z,14.63
2019-04-04T18:51:19.669Z,14.56
2019-04-04T18:54:25.403Z,14.55
2019-04-04T18:57:31.103Z,14.54
2019-04-04T19:00:37.105Z,14.50
2019-04-04T19:03:42.776Z,14.70
2019-04-04T19:06:48.746Z,14.57
2019-04-04T19:09:55.579Z,14.59
2019-04-04T19:13:05.545Z,14.49
2019-04-04T19:16:10.616Z,14.39
2019-04-04T19:19:16.377Z,14.08
2019-04-04T19:22:22.059Z,13.97
2019-04-04T19:25:27.818Z,13.99
2019-04-04T19:28:34.021Z,13.87
2019-04-04T19:31:39.797Z,13.40
2019-04-04T19:34:45.623Z,13.32
2019-04-04T19:38:00.016Z,13.25
2019-04-04T19:40:58.850Z,13.19
2019-04-04T19:44:04.918Z,13.34
2019-04-04T19:47:10.639Z,13.25
2019-04-04T19:50:16.671Z,13.42
2019-04-04T19:53:22.465Z,13.30
2019-04-04T19:56:28.213Z,13.05
2019-04-04T19:59:34.123Z,13.11
2019-04-04T20:02:44.121Z,13.01
2019-04-04T20:05:50.011Z,12.92
2019-04-04T20:08:55.741Z,12.95
2019-04-04T20:12:01.422Z,13.11
2019-04-04T20:15:07.446Z,12.72
2019-04-04T20:18:13.388Z,13.02
2019-04-04T20:21:19.065Z,12.87
2019-04-04T20:24:24.779Z,12.62
2019-04-04T20:27:30.497Z,12.18
2019-04-04T20:30:40.165Z,12.27
2019-04-04T20:33:45.870Z,11.88
2019-04-04T20:36:51.672Z,11.78
2019-04-04T20:39:57.341Z,11.58
2019-04-04T20:43:03.048Z,11.63
2019-04-04T20:46:08.705Z,11.55
2019-04-04T20:49:14.534Z,11.35
2019-04-04T20:52:20.196Z,11.42
2019-04-04T20:55:25.863Z,11.35
2019-04-04T20:58:31.530Z,11.48
2019-04-04T21:01:37.413Z,11.24
2019-04-04T21:04:43.070Z,11.39
2019-04-04T21:07:48.795Z,10.88
2019-04-04T21:10:54.595Z,11.37
2019-04-04T21:14:00.252Z,10.57
2019-04-04T21:17:05.915Z,10.82
2019-04-04T21:20:11.571Z,10.64
2019-04-04T21:23:17.394Z,10.45
2019-04-04T21:26:23.118Z,10.87
2019-04-04T21:29:28.962Z,10.77
2019-04-04T21:32:34.771Z,10.85
2019-04-04T21:35:40.498Z,10.84
2019-04-04T21:38:46.219Z,11.04
2019-04-04T21:41:51.923Z,10.73
2019-04-04T21:44:57.588Z,10.61
2019-04-04T21:48:03.409Z,10.69
2019-04-04T21:51:09.173Z,11.00
2019-04-04T21:54:14.995Z,10.92
2019-04-04T21:57:20.663Z,10.88
2019-04-04T22:00:29.072Z,10.84
2019-04-04T22:03:36.833Z,10.91
2019-04-04T22:06:42.715Z,10.96
2019-04-04T22:09:48.453Z,10.84
2019-04-04T22:12:54.142Z,11.15
2019-04-04T22:15:59.808Z,10.82
2019-04-04T22:19:05.488Z,10.66
2019-04-04T22:22:12.284Z,10.57
2019-04-04T22:25:17.938Z,10.70
2019-04-04T22:28:23.666Z,10.29
2019-04-04T22:31:29.323Z,10.33
2019-04-04T22:34:34.995Z,10.43
2019-04-04T22:37:40.682Z,10.18
2019-04-04T22:40:46.455Z,10.16
2019-04-04T22:44:02.901Z,10.53
2019-04-04T22:46:59.618Z,10.36
2019-04-04T22:50:05.817Z,10.00
2019-04-04T22:53:11.502Z,9.73
2019-04-04T22:56:17.255Z,9.81
2019-04-04T22:59:22.940Z,9.87
2019-04-04T23:02:28.620Z,9.93
2019-04-04T23:05:34.301Z,9.97
2019-04-04T23:08:39.979Z,9.95
2019-04-04T23:11:45.629Z,9.56
2019-04-04T23:14:51.382Z,9.64
2019-04-04T23:17:57.014Z,9.68
2019-04-04T23:21:02.725Z,9.54
2019-04-04T23:24:08.395Z,9.40
2019-04-04T23:27:14.166Z,9.24
2019-04-04T23:30:20.001Z,9.46
2019-04-04T23:33:25.682Z,9.40
2019-04-04T23:36:35.339Z,9.48
2019-04-04T23:39:38.774Z,9.55
2019-04-04T23:42:44.514Z,9.63
2019-04-04T23:45:50.167Z,9.60
2019-04-04T23:48:55.832Z,9.52
2019-04-04T23:52:01.487Z,9.83
2019-04-04T23:55:07.599Z,9.23
2019-04-04T23:58:13.268Z,9.48
